createdAt,value
2023-05-10T00:00:17.212Z,2.35
2023-05-10T00:02:45.381Z,1.40
2023-05-10T00:05:13.140Z,3.22
2023-05-10T00:07:45.692Z,1.77
2023-05-10T00:10:13.705Z,1.33
2023-05-10T00:12:41.503Z,0.93
2023-05-10T00:15:10.191Z,1.30
2023-05-10T00:17:37.819Z,2.33
2023-05-10T00:20:06.165Z,2.05
2023-05-10T00:22:33.927Z,2.67
2023-05-10T00:25:03.063Z,2.03
2023-05-10T00:27:30.800Z,2.47
2023-05-10T00:29:58.505Z,2.75
2023-05-10T00:32:26.183Z,1.80
2023-05-10T00:34:54.083Z,2.40
2023-05-10T00:37:22.040Z,2.53
2023-05-10T00:39:50.768Z,1.98
2023-05-10T00:42:19.971Z,1.88
2023-05-10T00:44:48.694Z,2.42
2023-05-10T00:47:17.669Z,2.20
2023-05-10T00:49:45.716Z,1.77
2023-05-10T00:52:14.010Z,2.28
2023-05-10T00:54:43.146Z,2.72
2023-05-10T00:57:12.250Z,2.75
2023-05-10T00:59:41.601Z,4.63
2023-05-10T01:02:09.370Z,3.22
2023-05-10T01:04:38.117Z,4.10
2023-05-10T01:07:06.001Z,3.97
2023-05-10T01:09:34.007Z,4.05
2023-05-10T01:12:02.396Z,4.30
2023-05-10T01:14:31.000Z,4.05
2023-05-10T01:17:00.157Z,4.97
2023-05-10T01:19:28.550Z,4.65
2023-05-10T01:22:00.467Z,6.38
2023-05-10T01:24:40.490Z,8.13
2023-05-10T01:27:30.016Z,6.20
2023-05-10T01:30:15.449Z,6.68
2023-05-10T01:32:49.051Z,6.47
2023-05-10T01:35:19.056Z,7.07
2023-05-10T01:37:49.005Z,7.40
2023-05-10T01:40:21.864Z,5.88
2023-05-10T01:42:51.832Z,6.32
2023-05-10T01:45:23.389Z,6.20
2023-05-10T01:47:56.311Z,6.68
2023-05-10T01:52:53.253Z,7.22
2023-05-10T01:55:23.327Z,5.18
2023-05-10T01:57:54.838Z,7.07
2023-05-10T02:00:22.615Z,5.97
2023-05-10T02:02:54.794Z,5.00
2023-05-10T02:05:23.539Z,4.63
2023-05-10T02:07:51.689Z,4.50
2023-05-10T02:10:20.042Z,4.65
2023-05-10T02:12:50.401Z,4.30
2023-05-10T02:15:20.667Z,4.43
2023-05-10T02:17:48.780Z,4.57
2023-05-10T02:20:18.574Z,3.92
2023-05-10T02:22:47.218Z,4.55
2023-05-10T02:25:16.633Z,4.07
2023-05-10T02:27:44.702Z,3.85
2023-05-10T02:30:13.768Z,4.90
2023-05-10T02:32:42.068Z,4.25
2023-05-10T02:35:10.453Z,4.28
2023-05-10T02:37:40.539Z,4.30
2023-05-10T02:40:09.149Z,5.15
2023-05-10T02:42:38.236Z,4.60
2023-05-10T02:45:09.773Z,4.15
2023-05-10T02:47:37.575Z,4.07
2023-05-10T02:50:05.746Z,4.88
2023-05-10T02:52:38.844Z,4.40
2023-05-10T02:55:11.189Z,5.05
2023-05-10T02:57:42.801Z,5.05
2023-05-10T03:00:10.834Z,5.05
2023-05-10T03:02:38.610Z,5.25
2023-05-10T03:05:06.586Z,4.95
2023-05-10T03:07:34.813Z,5.78
2023-05-10T03:10:02.799Z,4.32
2023-05-10T03:12:40.643Z,4.15
2023-05-10T03:15:13.213Z,3.50
2023-05-10T03:17:47.750Z,4.13
2023-05-10T03:20:22.691Z,4.30
2023-05-10T03:22:53.492Z,4.32
2023-05-10T03:25:22.905Z,4.75
2023-05-10T03:27:54.258Z,4.75
2023-05-10T03:30:22.370Z,4.43
2023-05-10T03:32:50.281Z,3.75
2023-05-10T03:35:19.338Z,3.83
2023-05-10T03:37:47.993Z,4.78
2023-05-10T03:40:16.528Z,5.25
2023-05-10T03:42:45.312Z,4.10
2023-05-10T03:45:14.574Z,5.43
2023-05-10T03:47:42.975Z,5.25
2023-05-10T03:50:12.634Z,5.43
2023-05-10T03:52:41.336Z,4.70
2023-05-10T03:55:10.061Z,6.25
2023-05-10T03:57:38.187Z,6.38
2023-05-10T04:00:08.151Z,5.63
2023-05-10T04:02:46.544Z,6.22
2023-05-10T04:05:19.715Z,6.07
2023-05-10T04:07:48.114Z,5.13
2023-05-10T04:10:17.340Z,6.82
2023-05-10T04:12:45.355Z,5.82
2023-05-10T04:15:13.070Z,5.22
2023-05-10T04:17:40.940Z,5.28
2023-05-10T04:20:10.812Z,7.35
2023-05-10T04:22:38.620Z,5.78
2023-05-10T04:25:07.107Z,6.90
2023-05-10T04:27:34.875Z,7.15
2023-05-10T04:30:02.943Z,5.75
2023-05-10T04:32:32.459Z,9.02
2023-05-10T04:35:00.255Z,6.75
2023-05-10T04:37:29.392Z,8.05
2023-05-10T04:39:57.213Z,7.97
2023-05-10T04:42:24.913Z,7.28
2023-05-10T04:44:53.017Z,6.97
2023-05-10T04:47:20.875Z,7.70
2023-05-10T04:49:48.660Z,5.18
2023-05-10T04:52:18.336Z,6.82
2023-05-10T04:54:47.563Z,5.70
2023-05-10T04:57:15.325Z,9.80
2023-05-10T04:59:43.496Z,7.07
2023-05-10T05:02:11.245Z,6.60
2023-05-10T05:04:38.990Z,8.25
2023-05-10T05:07:06.978Z,4.80
2023-05-10T05:09:34.794Z,6.53
2023-05-10T05:12:04.020Z,6.68
2023-05-10T05:14:32.306Z,5.78
2023-05-10T05:17:00.478Z,6.93
2023-05-10T05:19:28.368Z,5.30
2023-05-10T05:21:56.151Z,7.95
2023-05-10T05:24:24.157Z,4.45
2023-05-10T05:26:51.919Z,5.15
2023-05-10T05:29:22.076Z,5.50
2023-05-10T05:31:49.820Z,4.95
2023-05-10T05:34:17.969Z,6.57
2023-05-10T05:36:46.049Z,5.95
2023-05-10T05:39:13.733Z,5.03
2023-05-10T05:41:41.684Z,5.32
2023-05-10T05:44:09.452Z,9.73
2023-05-10T05:46:38.993Z,7.00
2023-05-10T05:49:06.694Z,6.40
2023-05-10T05:51:35.721Z,5.30
2023-05-10T05:54:05.191Z,6.68
2023-05-10T05:56:33.158Z,5.32
2023-05-10T05:59:00.885Z,5.75
2023-05-10T06:01:28.579Z,6.20
2023-05-10T06:03:57.717Z,7.10
2023-05-10T06:06:25.611Z,6.28
2023-05-10T06:08:53.320Z,4.75
2023-05-10T06:11:21.948Z,4.70
2023-05-10T06:13:49.607Z,5.07
2023-05-10T06:16:17.271Z,6.28
2023-05-10T06:18:44.971Z,4.38
2023-05-10T06:21:13.964Z,4.80
2023-05-10T06:23:41.810Z,5.38
2023-05-10T06:26:10.043Z,4.72
2023-05-10T06:28:39.426Z,4.00
2023-05-10T06:31:07.473Z,4.70
2023-05-10T06:33:35.219Z,6.18
2023-05-10T06:36:03.052Z,5.55
2023-05-10T06:38:34.238Z,5.75
2023-05-10T06:41:02.319Z,4.65
2023-05-10T06:43:30.597Z,5.40
2023-05-10T06:45:58.369Z,4.88
2023-05-10T06:48:26.077Z,6.40
2023-05-10T06:50:54.767Z,7.07
2023-05-10T06:53:22.999Z,5.97
2023-05-10T06:55:52.988Z,7.03
2023-05-10T06:58:20.649Z,6.10
2023-05-10T07:00:48.375Z,5.28
2023-05-10T07:03:16.205Z,7.50
2023-05-10T07:05:44.038Z,6.65
2023-05-10T07:08:11.715Z,7.32
2023-05-10T07:10:39.438Z,7.50
2023-05-10T07:13:08.710Z,7.53
2023-05-10T07:15:36.452Z,6.50
2023-05-10T07:18:05.441Z,7.60
2023-05-10T07:20:33.226Z,6.55
2023-05-10T07:23:00.950Z,8.93
2023-05-10T07:25:28.711Z,8.75
2023-05-10T07:27:56.377Z,6.80
2023-05-10T07:30:25.604Z,6.68
2023-05-10T07:32:53.487Z,7.97
2023-05-10T07:35:21.330Z,6.32
2023-05-10T07:37:49.017Z,7.55
2023-05-10T07:40:16.760Z,7.13
2023-05-10T07:42:44.482Z,5.88
2023-05-10T07:45:12.308Z,4.80
2023-05-10T07:47:41.427Z,6.75
2023-05-10T07:50:09.749Z,4.55
2023-05-10T07:52:37.445Z,4.85
2023-05-10T07:55:05.448Z,5.75
2023-05-10T07:57:34.239Z,5.72
2023-05-10T08:00:01.958Z,4.72
2023-05-10T08:02:30.434Z,8.32
2023-05-10T08:04:59.583Z,3.78
2023-05-10T08:07:27.239Z,5.45
2023-05-10T08:09:54.977Z,3.25
2023-05-10T08:12:22.655Z,8.73
2023-05-10T08:14:50.600Z,5.82
2023-05-10T08:17:20.071Z,3.80
2023-05-10T08:19:48.253Z,6.50
2023-05-10T08:22:17.629Z,3.35
2023-05-10T08:24:45.303Z,4.30
2023-05-10T08:27:12.979Z,3.75
2023-05-10T08:29:49.667Z,5.35
2023-05-10T08:32:18.269Z,7.63
2023-05-10T08:34:45.985Z,4.88
2023-05-10T08:37:14.345Z,3.45
2023-05-10T08:39:43.665Z,5.45
2023-05-10T08:42:11.473Z,6.28
2023-05-10T08:44:39.186Z,7.57
2023-05-10T08:47:08.016Z,3.72
2023-05-10T08:49:35.957Z,4.28
2023-05-10T08:52:05.232Z,4.97
2023-05-10T08:54:36.493Z,5.22
2023-05-10T08:57:05.716Z,8.57
2023-05-10T08:59:34.081Z,4.38
2023-05-10T09:02:02.490Z,5.38
2023-05-10T09:04:30.447Z,5.05
2023-05-10T09:06:58.623Z,7.28
2023-05-10T09:09:27.324Z,5.43
2023-05-10T09:11:55.320Z,4.43
2023-05-10T09:14:25.826Z,4.13
2023-05-10T09:16:54.837Z,4.97
2023-05-10T09:19:22.660Z,3.65
2023-05-10T09:21:50.895Z,4.60
2023-05-10T09:24:18.531Z,4.95
2023-05-10T09:26:50.121Z,3.85
2023-05-10T09:29:18.147Z,5.57
2023-05-10T09:31:48.660Z,4.00
2023-05-10T09:34:20.038Z,2.53
2023-05-10T09:36:54.462Z,4.35
2023-05-10T09:39:22.497Z,5.45
2023-05-10T09:41:50.353Z,7.57
2023-05-10T09:44:21.526Z,4.13
2023-05-10T09:46:53.752Z,3.70
2023-05-10T09:49:21.738Z,2.60
2023-05-10T09:51:49.721Z,4.35
2023-05-10T09:54:17.915Z,4.65
2023-05-10T09:56:45.860Z,4.10
2023-05-10T09:59:14.139Z,2.90
2023-05-10T10:01:43.047Z,1.80
2023-05-10T10:04:12.488Z,3.00
2023-05-10T10:06:40.690Z,2.78
2023-05-10T10:09:08.871Z,2.15
2023-05-10T10:11:37.060Z,3.63
2023-05-10T10:14:04.840Z,2.85
2023-05-10T10:16:33.521Z,2.60
2023-05-10T10:19:01.655Z,2.95
2023-05-10T10:21:31.871Z,2.03
2023-05-10T10:23:59.857Z,1.83
2023-05-10T10:26:28.030Z,1.80
2023-05-10T10:29:00.267Z,5.07
2023-05-10T10:31:29.917Z,1.92
2023-05-10T10:34:01.343Z,2.47
2023-05-10T10:36:29.094Z,3.33
2023-05-10T10:39:00.548Z,2.90
2023-05-10T10:41:32.696Z,2.33
2023-05-10T10:44:19.154Z,2.97
2023-05-10T10:47:03.535Z,4.38
2023-05-10T10:49:33.398Z,2.47
2023-05-10T10:52:17.573Z,2.97
2023-05-10T10:54:51.853Z,3.92
2023-05-10T10:57:20.374Z,3.42
2023-05-10T10:59:48.190Z,1.83
2023-05-10T11:02:34.822Z,1.75
2023-05-10T11:05:22.564Z,5.65
2023-05-10T11:07:53.840Z,2.13
2023-05-10T11:10:22.946Z,1.50
2023-05-10T11:12:54.559Z,2.15
2023-05-10T11:15:22.390Z,1.45
2023-05-10T11:17:52.975Z,7.93
2023-05-10T11:20:23.892Z,3.83
2023-05-10T11:22:52.647Z,2.28
2023-05-10T11:25:20.390Z,2.47
2023-05-10T11:27:50.395Z,2.13
2023-05-10T11:30:18.648Z,1.80
2023-05-10T11:32:46.783Z,4.68
2023-05-10T11:35:14.854Z,2.55
2023-05-10T11:37:44.717Z,2.30
2023-05-10T11:40:13.047Z,1.77
2023-05-10T11:42:40.763Z,3.30
2023-05-10T11:45:10.733Z,2.30
2023-05-10T11:47:42.651Z,2.92
2023-05-10T11:50:11.170Z,2.22
2023-05-10T11:52:39.268Z,3.72
2023-05-10T11:55:08.737Z,1.45
2023-05-10T11:57:39.289Z,2.10
2023-05-10T12:00:08.221Z,2.08
2023-05-10T12:02:37.464Z,3.50
2023-05-10T12:05:06.132Z,2.88
2023-05-10T12:07:34.189Z,2.67
2023-05-10T12:10:06.005Z,1.60
2023-05-10T12:12:44.018Z,1.20
2023-05-10T12:15:19.314Z,1.77
2023-05-10T12:17:48.915Z,1.77
2023-05-10T12:20:17.930Z,2.92
2023-05-10T12:22:46.417Z,1.67
2023-05-10T12:25:14.122Z,1.98
2023-05-10T12:27:41.776Z,3.13
2023-05-10T12:30:09.996Z,1.48
2023-05-10T12:32:41.670Z,2.88
2023-05-10T12:35:10.907Z,3.08
2023-05-10T12:37:40.115Z,1.63
2023-05-10T12:40:10.134Z,2.83
2023-05-10T12:42:37.829Z,2.08
2023-05-10T12:45:06.375Z,1.10
2023-05-10T12:47:34.126Z,2.70
2023-05-10T12:50:02.214Z,2.50
2023-05-10T12:52:33.470Z,1.67
2023-05-10T12:55:01.372Z,3.60
2023-05-10T12:57:29.808Z,3.85
2023-05-10T12:59:57.513Z,1.88
2023-05-10T13:02:25.290Z,1.52
2023-05-10T13:04:53.137Z,2.63
2023-05-10T13:07:21.060Z,1.30
2023-05-10T13:09:50.250Z,2.22
2023-05-10T13:12:17.874Z,1.92
2023-05-10T13:14:45.744Z,2.45
2023-05-10T13:17:13.525Z,1.58
2023-05-10T13:19:41.209Z,2.72
2023-05-10T13:22:08.886Z,1.83
2023-05-10T13:24:36.606Z,1.83
2023-05-10T13:27:05.872Z,2.35
2023-05-10T13:29:33.869Z,2.70
2023-05-10T13:32:02.360Z,2.50
2023-05-10T13:34:30.730Z,3.10
2023-05-10T13:36:59.480Z,2.95
2023-05-10T13:39:27.631Z,4.22
2023-05-10T13:41:57.319Z,2.97
2023-05-10T13:44:27.106Z,4.82
2023-05-10T13:46:56.687Z,6.18
2023-05-10T13:49:24.953Z,2.80
2023-05-10T13:51:52.952Z,2.60
2023-05-10T13:54:20.925Z,2.33
2023-05-10T13:56:49.550Z,2.92
2023-05-10T13:59:17.451Z,1.75
2023-05-10T14:01:46.522Z,4.75
2023-05-10T14:04:14.164Z,3.33
2023-05-10T14:06:41.818Z,2.65
2023-05-10T14:09:09.678Z,3.92
2023-05-10T14:11:37.304Z,3.17
2023-05-10T14:14:05.023Z,3.03
2023-05-10T14:16:32.719Z,2.05
2023-05-10T14:19:02.584Z,2.83
2023-05-10T14:21:30.679Z,2.42
2023-05-10T14:23:58.465Z,2.30
2023-05-10T14:26:27.267Z,2.35
2023-05-10T14:28:54.999Z,1.67
2023-05-10T14:31:24.179Z,2.20
2023-05-10T14:33:51.827Z,3.92
2023-05-10T14:36:20.894Z,4.15
2023-05-10T14:38:48.509Z,2.88
2023-05-10T14:41:18.405Z,3.35
2023-05-10T14:43:46.206Z,2.88
2023-05-10T14:46:13.939Z,4.85
2023-05-10T14:48:41.745Z,2.88
2023-05-10T14:51:09.386Z,2.33
2023-05-10T14:53:38.380Z,1.67
2023-05-10T14:56:06.181Z,2.17
2023-05-10T14:58:34.429Z,4.65
2023-05-10T15:01:02.336Z,3.67
2023-05-10T15:03:30.765Z,2.13
2023-05-10T15:05:59.991Z,2.95
2023-05-10T15:08:27.666Z,1.65
2023-05-10T15:10:57.346Z,4.43
2023-05-10T15:13:25.072Z,1.92
2023-05-10T15:15:52.793Z,1.95
2023-05-10T15:18:20.482Z,2.97
2023-05-10T15:20:48.137Z,3.13
2023-05-10T15:23:15.801Z,1.75
2023-05-10T15:25:43.524Z,3.22
2023-05-10T15:28:13.676Z,4.18
2023-05-10T15:30:41.356Z,3.80
2023-05-10T15:33:10.133Z,1.38
2023-05-10T15:35:39.315Z,4.32
2023-05-10T15:38:07.033Z,2.92
2023-05-10T15:40:34.766Z,2.60
2023-05-10T15:43:02.671Z,2.15
2023-05-10T15:45:31.945Z,2.85
2023-05-10T15:47:59.942Z,3.90
2023-05-10T15:50:28.293Z,1.30
2023-05-10T15:52:56.245Z,2.58
2023-05-10T15:55:23.991Z,1.35
2023-05-10T15:57:51.825Z,3.47
2023-05-10T16:00:19.808Z,2.58
2023-05-10T16:02:49.523Z,2.33
2023-05-10T16:05:17.807Z,3.17
2023-05-10T16:07:46.877Z,3.13
2023-05-10T16:10:15.203Z,3.65
2023-05-10T16:12:43.221Z,2.70
2023-05-10T16:15:11.628Z,1.80
2023-05-10T16:17:39.527Z,0.95
2023-05-10T16:20:09.553Z,2.53
2023-05-10T16:22:37.519Z,1.42
2023-05-10T16:25:05.512Z,5.32
2023-05-10T16:27:33.530Z,1.88
2023-05-10T16:30:01.642Z,5.07
2023-05-10T16:32:29.529Z,4.13
2023-05-10T16:34:57.207Z,3.90
2023-05-10T16:37:26.528Z,3.08
2023-05-10T16:39:54.317Z,1.80
2023-05-10T16:42:23.874Z,4.35
2023-05-10T16:44:51.556Z,2.40
2023-05-10T16:47:19.645Z,3.53
2023-05-10T16:49:47.272Z,2.50
2023-05-10T16:52:14.971Z,2.03
2023-05-10T16:54:44.038Z,2.08
2023-05-10T16:57:11.737Z,3.88
2023-05-10T16:59:39.424Z,2.00
2023-05-10T17:02:07.870Z,3.72
2023-05-10T17:04:35.886Z,1.60
2023-05-10T17:07:04.654Z,2.92
2023-05-10T17:09:32.294Z,3.72
2023-05-10T17:12:03.225Z,1.48
2023-05-10T17:14:31.370Z,1.20
2023-05-10T17:16:59.214Z,1.20
2023-05-10T17:19:27.112Z,1.88
2023-05-10T17:21:54.830Z,1.70
2023-05-10T17:24:22.587Z,3.10
2023-05-10T17:26:50.239Z,2.35
2023-05-10T17:29:19.386Z,2.75
2023-05-10T17:31:47.490Z,3.22
2023-05-10T17:34:15.704Z,2.25
2023-05-10T17:36:43.533Z,1.25
2023-05-10T17:39:11.449Z,3.47
2023-05-10T17:41:39.114Z,3.63
2023-05-10T17:44:07.346Z,2.72
2023-05-10T17:46:36.759Z,2.28
2023-05-10T17:49:04.429Z,3.33
2023-05-10T17:51:32.574Z,1.35
2023-05-10T17:54:00.290Z,2.33
2023-05-10T17:56:28.792Z,2.70
2023-05-10T17:58:56.758Z,2.65
2023-05-10T18:01:24.461Z,2.70
2023-05-10T18:03:53.541Z,1.80
2023-05-10T18:06:21.380Z,1.40
2023-05-10T18:08:49.049Z,2.75
2023-05-10T18:11:16.840Z,1.00
2023-05-10T18:13:50.463Z,1.98
2023-05-10T18:16:18.267Z,1.55
2023-05-10T18:18:45.954Z,2.55
2023-05-10T18:21:15.171Z,3.10
2023-05-10T18:23:42.849Z,4.10
2023-05-10T18:26:10.557Z,2.10
2023-05-10T18:28:38.272Z,6.53
2023-05-10T18:31:06.011Z,5.95
2023-05-10T18:33:33.718Z,3.55
2023-05-10T18:36:02.269Z,2.72
2023-05-10T18:38:31.413Z,1.88
2023-05-10T18:40:59.031Z,2.28
2023-05-10T18:43:26.720Z,1.92
2023-05-10T18:45:54.474Z,2.72
2023-05-10T18:48:22.263Z,2.10
2023-05-10T18:50:50.040Z,1.90
2023-05-10T18:53:17.793Z,1.48
2023-05-10T18:55:46.890Z,4.05
2023-05-10T18:58:14.524Z,2.35
2023-05-10T19:00:42.353Z,1.30
2023-05-10T19:03:10.094Z,0.85
2023-05-10T19:05:37.783Z,2.85
2023-05-10T19:08:05.662Z,2.30
2023-05-10T19:10:33.409Z,1.67
2023-05-10T19:13:02.658Z,1.70
2023-05-10T19:15:30.914Z,2.70
2023-05-10T19:17:59.518Z,1.25
2023-05-10T19:20:28.174Z,1.45
2023-05-10T19:23:09.018Z,2.20
2023-05-10T19:25:39.208Z,2.05
2023-05-10T19:28:08.976Z,2.47
2023-05-10T19:30:37.733Z,1.48
2023-05-10T19:33:06.144Z,2.58
2023-05-10T19:35:34.638Z,8.10
2023-05-10T19:38:02.656Z,2.95
2023-05-10T19:40:30.838Z,2.47
2023-05-10T19:43:00.366Z,2.28
2023-05-10T19:45:29.553Z,3.17
2023-05-10T19:47:57.464Z,1.45
2023-05-10T19:50:25.492Z,4.00
2023-05-10T19:52:53.689Z,3.33
2023-05-10T19:55:28.548Z,1.38
2023-05-10T19:57:56.477Z,1.98
2023-05-10T20:00:24.778Z,2.25
2023-05-10T20:02:54.790Z,2.75
2023-05-10T20:05:23.256Z,3.95
2023-05-10T20:07:51.274Z,1.23
2023-05-10T20:10:19.688Z,1.38
2023-05-10T20:12:51.143Z,3.60
2023-05-10T20:15:20.113Z,1.15
2023-05-10T20:17:48.395Z,4.90
2023-05-10T20:20:18.526Z,3.25
2023-05-10T20:22:46.743Z,4.00
2023-05-10T20:25:14.853Z,5.10
2023-05-10T20:27:42.970Z,1.92
2023-05-10T20:30:11.411Z,3.17
2023-05-10T20:32:39.605Z,2.30
2023-05-10T20:35:08.001Z,2.75
2023-05-10T20:37:38.119Z,6.90
2023-05-10T20:40:06.792Z,2.03
2023-05-10T20:42:34.485Z,3.05
2023-05-10T20:45:02.161Z,9.27
2023-05-10T20:47:30.063Z,2.20
2023-05-10T20:49:57.794Z,1.30
2023-05-10T20:52:25.566Z,1.50
2023-05-10T20:54:54.643Z,2.25
2023-05-10T20:57:22.371Z,2.55
2023-05-10T20:59:50.507Z,2.10
2023-05-10T21:02:18.246Z,3.88
2023-05-10T21:04:46.079Z,2.80
2023-05-10T21:07:13.813Z,3.63
2023-05-10T21:09:41.919Z,2.40
2023-05-10T21:12:11.322Z,3.17
2023-05-10T21:14:38.961Z,3.90
2023-05-10T21:17:06.756Z,1.30
2023-05-10T21:19:34.620Z,3.17
2023-05-10T21:22:02.325Z,1.85
2023-05-10T21:24:30.205Z,3.55
2023-05-10T21:26:58.141Z,1.90
2023-05-10T21:29:27.464Z,2.15
2023-05-10T21:31:55.328Z,2.60
2023-05-10T21:34:23.323Z,1.90
2023-05-10T21:36:51.134Z,1.52
2023-05-10T21:39:19.002Z,4.63
2023-05-10T21:41:46.769Z,3.42
2023-05-10T21:44:14.798Z,1.80
2023-05-10T21:46:44.333Z,1.48
2023-05-10T21:49:12.198Z,1.88
2023-05-10T21:51:40.246Z,2.78
2023-05-10T21:54:08.175Z,3.22
2023-05-10T21:56:35.974Z,1.60
2023-05-10T21:59:05.407Z,3.95
2023-05-10T22:01:33.302Z,2.92
2023-05-10T22:04:02.782Z,1.45
2023-05-10T22:06:30.858Z,2.72
2023-05-10T22:08:58.682Z,2.00
2023-05-10T22:11:27.446Z,5.57
2023-05-10T22:13:55.468Z,7.20
2023-05-10T22:16:23.555Z,5.18
2023-05-10T22:18:54.157Z,4.97
2023-05-10T22:21:23.844Z,3.80
2023-05-10T22:23:51.911Z,8.38
2023-05-10T22:26:19.980Z,3.13
2023-05-10T22:28:48.114Z,9.07
2023-05-10T22:31:16.245Z,5.30
2023-05-10T22:33:44.216Z,9.02
2023-05-10T22:36:12.071Z,4.97
2023-05-10T22:38:41.345Z,2.58
2023-05-10T22:41:09.310Z,2.30
2023-05-10T22:43:37.176Z,4.13
2023-05-10T22:46:05.776Z,6.40
2023-05-10T22:48:43.252Z,2.97
2023-05-10T22:51:12.051Z,1.70
2023-05-10T22:53:41.264Z,2.63
2023-05-10T22:56:09.434Z,1.45
2023-05-10T22:58:37.545Z,2.90
2023-05-10T23:01:05.544Z,3.30
2023-05-10T23:03:33.269Z,3.38
2023-05-10T23:06:00.996Z,3.83
2023-05-10T23:08:28.876Z,10.80
2023-05-10T23:10:58.027Z,11.75
2023-05-10T23:13:25.740Z,13.68
2023-05-10T23:15:53.531Z,9.63
2023-05-10T23:18:21.219Z,7.55
2023-05-10T23:20:48.894Z,3.20
2023-05-10T23:23:16.795Z,2.33
2023-05-10T23:25:44.423Z,3.95
2023-05-10T23:28:13.517Z,2.42
2023-05-10T23:30:41.215Z,2.78
2023-05-10T23:33:09.521Z,1.52
2023-05-10T23:35:37.315Z,3.20
2023-05-10T23:38:05.048Z,1.75
2023-05-10T23:40:32.796Z,1.83
2023-05-10T23:43:00.422Z,0.75
2023-05-10T23:45:29.472Z,2.70
2023-05-10T23:47:57.276Z,1.50
2023-05-10T23:50:24.973Z,2.13
2023-05-10T23:52:52.658Z,1.40
2023-05-10T23:55:20.421Z,2.47
2023-05-10T23:57:48.058Z,1.20
